createdAt,value
2017-04-12T00:00:58.683Z,947.3
2017-04-12T00:02:07.277Z,947.3
2017-04-12T00:03:14.866Z,947.3
2017-04-12T00:04:23.095Z,947.3
2017-04-12T00:05:31.095Z,947.3
2017-04-12T00:06:39.148Z,947.3
2017-04-12T00:07:47.276Z,947.2
2017-04-12T00:08:55.315Z,947.2
2017-04-12T00:10:03.398Z,947.2
2017-04-12T00:11:11.492Z,947.2
2017-04-12T00:12:19.575Z,947.2
2017-04-12T00:13:27.722Z,947.2
2017-04-12T00:14:35.750Z,947.2
2017-04-12T00:15:43.843Z,947.2
2017-04-12T00:16:51.927Z,947.2
2017-04-12T00:18:00.016Z,947.2
2017-04-12T00:19:08.613Z,947.2
2017-04-12T00:20:16.328Z,947.3
2017-04-12T00:21:24.335Z,947.3
2017-04-12T00:22:32.371Z,947.2
2017-04-12T00:23:40.476Z,947.2
2017-04-12T00:24:48.618Z,947.2
2017-04-12T00:25:56.648Z,947.2
2017-04-12T00:27:04.736Z,947.2
2017-04-12T00:28:12.830Z,947.2
2017-04-12T00:29:20.924Z,947.2
2017-04-12T00:30:29.150Z,947.1
2017-04-12T00:31:37.198Z,947.1
2017-04-12T00:32:45.184Z,947.0
2017-04-12T00:33:53.266Z,947.0
2017-04-12T00:35:01.364Z,947.0
2017-04-12T00:36:09.570Z,947.0
2017-04-12T00:37:18.063Z,947.0
2017-04-12T00:38:25.620Z,946.9
2017-04-12T00:39:33.714Z,947.0
2017-04-12T00:40:41.800Z,947.0
2017-04-12T00:41:50.105Z,947.0
2017-04-12T00:42:57.973Z,946.9
2017-04-12T00:44:06.063Z,946.9
2017-04-12T00:45:14.145Z,946.9
2017-04-12T00:46:22.236Z,946.9
2017-04-12T00:47:30.455Z,946.9
2017-04-12T00:48:38.432Z,946.9
2017-04-12T00:49:46.508Z,946.9
2017-04-12T00:50:54.593Z,946.9
2017-04-12T00:52:02.817Z,946.9
2017-04-12T00:53:11.297Z,946.9
2017-04-12T00:54:18.859Z,946.9
2017-04-12T00:55:26.952Z,946.9
2017-04-12T00:56:35.055Z,946.9
2017-04-12T00:57:43.139Z,946.8
2017-04-12T00:58:51.283Z,946.9
2017-04-12T00:59:59.318Z,946.9
2017-04-12T01:01:07.406Z,946.9
2017-04-12T01:02:15.492Z,946.9
2017-04-12T01:03:23.650Z,946.8
2017-04-12T01:04:31.793Z,946.8
2017-04-12T01:05:39.764Z,946.8
2017-04-12T01:06:47.857Z,946.8
2017-04-12T01:07:56.126Z,946.8
2017-04-12T01:09:04.538Z,946.8
2017-04-12T01:10:12.185Z,946.8
2017-04-12T01:11:20.214Z,946.8
2017-04-12T01:12:28.304Z,946.7
2017-04-12T01:13:36.385Z,946.8
2017-04-12T01:14:44.478Z,946.8
2017-04-12T01:15:52.618Z,946.8
2017-04-12T01:17:00.652Z,946.8
2017-04-12T01:18:08.744Z,946.8
2017-04-12T01:19:16.828Z,946.8
2017-04-12T01:20:24.915Z,946.8
2017-04-12T01:21:33.121Z,946.8
2017-04-12T01:22:41.091Z,946.7
2017-04-12T01:23:49.370Z,946.7
2017-04-12T01:24:57.328Z,946.7
2017-04-12T01:26:05.356Z,946.7
2017-04-12T01:27:13.949Z,946.7
2017-04-12T01:28:21.534Z,946.7
2017-04-12T01:29:29.617Z,946.7
2017-04-12T01:30:37.707Z,946.6
2017-04-12T01:31:45.794Z,946.6
2017-04-12T01:32:54.380Z,946.6
2017-04-12T01:34:02.085Z,946.6
2017-04-12T01:35:10.060Z,946.5
2017-04-12T01:36:18.138Z,946.5
2017-04-12T01:37:26.224Z,946.6
2017-04-12T01:38:34.369Z,946.5
2017-04-12T01:39:42.402Z,946.5
2017-04-12T01:40:50.610Z,946.6
2017-04-12T01:41:58.571Z,946.5
2017-04-12T01:43:06.661Z,946.5
2017-04-12T01:44:14.870Z,946.5
2017-04-12T01:45:22.858Z,946.5
2017-04-12T01:46:30.924Z,946.5
2017-04-12T01:47:39.021Z,946.5
2017-04-12T01:48:47.135Z,946.5
2017-04-12T01:49:55.695Z,946.5
2017-04-12T01:51:03.288Z,946.5
2017-04-12T01:52:11.377Z,946.4
2017-04-12T01:53:19.457Z,946.4
2017-04-12T01:54:27.555Z,946.4
2017-04-12T01:55:35.818Z,946.4
2017-04-12T01:56:43.861Z,946.4
2017-04-12T01:57:51.830Z,946.4
2017-04-12T01:58:59.920Z,946.4
2017-04-12T02:00:08.005Z,946.3
2017-04-12T02:01:16.142Z,946.4
2017-04-12T02:02:24.190Z,946.4
2017-04-12T02:03:32.266Z,946.4
2017-04-12T02:04:40.362Z,946.4
2017-04-12T02:05:48.454Z,946.4
2017-04-12T02:06:57.084Z,946.4
2017-04-12T02:08:04.628Z,946.4
2017-04-12T02:09:12.716Z,946.3
2017-04-12T02:10:20.805Z,946.3
2017-04-12T02:11:29.065Z,946.3
2017-04-12T02:12:37.040Z,946.3
2017-04-12T02:13:45.081Z,946.3
2017-04-12T02:14:53.164Z,946.2
2017-04-12T02:16:01.260Z,946.3
2017-04-12T02:17:09.342Z,946.3
2017-04-12T02:18:17.552Z,946.2
2017-04-12T02:19:25.519Z,946.2
2017-04-12T02:20:33.602Z,946.2
2017-04-12T02:21:41.819Z,946.2
2017-04-12T02:22:49.801Z,946.2
2017-04-12T02:23:57.924Z,946.2
2017-04-12T02:25:05.955Z,946.1
2017-04-12T02:26:14.046Z,946.1
2017-04-12T02:27:22.135Z,946.1
2017-04-12T02:28:30.281Z,946.1
2017-04-12T02:29:38.429Z,946.1
2017-04-12T02:30:46.405Z,946.0
2017-04-12T02:31:54.480Z,946.0
2017-04-12T02:33:02.629Z,946.1
2017-04-12T02:34:10.655Z,946.0
2017-04-12T02:35:18.821Z,946.0
2017-04-12T02:36:26.832Z,946.0
2017-04-12T02:37:35.119Z,946.0
2017-04-12T02:38:43.008Z,946.0
2017-04-12T02:39:51.093Z,946.0
2017-04-12T02:40:59.681Z,946.0
2017-04-12T02:42:07.274Z,946.0
2017-04-12T02:43:15.361Z,946.0
2017-04-12T02:44:23.500Z,946.0
2017-04-12T02:45:31.530Z,945.9
2017-04-12T02:46:39.739Z,945.9
2017-04-12T02:47:47.706Z,945.9
2017-04-12T02:48:55.799Z,946.0
2017-04-12T02:50:03.882Z,945.9
2017-04-12T02:51:11.971Z,945.9
2017-04-12T02:52:20.113Z,945.9
2017-04-12T02:53:28.143Z,946.0
2017-04-12T02:54:36.231Z,945.9
2017-04-12T02:55:44.312Z,945.9
2017-04-12T02:56:52.402Z,945.9
2017-04-12T02:58:00.548Z,945.9
2017-04-12T02:59:08.634Z,945.9
2017-04-12T03:00:17.240Z,945.9
2017-04-12T03:01:24.754Z,945.9
2017-04-12T03:02:32.844Z,945.9
2017-04-12T03:03:40.985Z,945.9
2017-04-12T03:04:49.016Z,945.9
2017-04-12T03:05:57.102Z,946.0
2017-04-12T03:07:05.196Z,945.9
2017-04-12T03:08:13.275Z,945.9
2017-04-12T03:09:21.429Z,945.9
2017-04-12T03:10:29.581Z,945.9
2017-04-12T03:11:37.541Z,945.9
2017-04-12T03:12:45.628Z,945.9
2017-04-12T03:13:53.715Z,945.9
2017-04-12T03:15:01.850Z,945.9
2017-04-12T03:16:10.391Z,945.9
2017-04-12T03:17:17.982Z,945.9
2017-04-12T03:18:26.065Z,945.9
2017-04-12T03:19:34.147Z,945.8
2017-04-12T03:20:42.406Z,945.8
2017-04-12T03:21:50.424Z,945.8
2017-04-12T03:22:58.408Z,945.9
2017-04-12T03:24:06.497Z,945.8
2017-04-12T03:25:14.587Z,945.8
2017-04-12T03:26:22.734Z,945.8
2017-04-12T03:27:30.765Z,945.8
2017-04-12T03:28:38.853Z,945.8
2017-04-12T03:29:46.937Z,945.8
2017-04-12T03:30:55.024Z,945.8
2017-04-12T03:32:03.237Z,945.8
2017-04-12T03:33:11.190Z,945.8
2017-04-12T03:34:19.277Z,945.8
2017-04-12T03:35:27.360Z,945.9
2017-04-12T03:36:35.449Z,945.9
2017-04-12T03:37:43.664Z,945.8
2017-04-12T03:38:51.624Z,945.9
2017-04-12T03:39:59.707Z,945.9
2017-04-12T03:41:07.799Z,945.8
2017-04-12T03:42:15.890Z,945.9
2017-04-12T03:43:24.556Z,945.8
2017-04-12T03:44:32.052Z,945.8
2017-04-12T03:45:40.138Z,945.8
2017-04-12T03:46:48.363Z,945.8
2017-04-12T03:47:56.375Z,945.8
2017-04-12T03:49:04.465Z,945.8
2017-04-12T03:50:12.492Z,945.8
2017-04-12T03:51:20.575Z,945.7
2017-04-12T03:52:28.665Z,945.7
2017-04-12T03:53:36.753Z,945.7
2017-04-12T03:54:44.959Z,945.7
2017-04-12T03:55:52.917Z,945.7
2017-04-12T03:57:01.007Z,945.7
2017-04-12T03:58:09.238Z,945.7
2017-04-12T03:59:17.181Z,945.7
2017-04-12T04:00:25.774Z,945.8
2017-04-12T04:01:33.355Z,945.8
2017-04-12T04:02:41.445Z,945.8
2017-04-12T04:03:49.648Z,945.8
2017-04-12T04:04:57.627Z,945.8
2017-04-12T04:06:05.831Z,945.8
2017-04-12T04:07:13.792Z,945.8
2017-04-12T04:08:21.886Z,945.8
2017-04-12T04:09:30.031Z,945.8
2017-04-12T04:10:38.057Z,945.9
2017-04-12T04:11:46.191Z,945.9
2017-04-12T04:12:54.231Z,945.9
2017-04-12T04:14:02.505Z,945.9
2017-04-12T04:15:10.402Z,945.9
2017-04-12T04:16:18.496Z,945.8
2017-04-12T04:17:27.079Z,945.9
2017-04-12T04:18:34.657Z,945.8
2017-04-12T04:19:42.875Z,945.8
2017-04-12T04:20:50.836Z,945.8
2017-04-12T04:21:58.913Z,945.8
2017-04-12T04:23:07.057Z,945.9
2017-04-12T04:24:15.264Z,945.9
2017-04-12T04:25:23.340Z,945.9
2017-04-12T04:26:31.264Z,945.9
2017-04-12T04:27:39.352Z,945.9
2017-04-12T04:28:47.562Z,945.9
2017-04-12T04:29:55.526Z,945.9
2017-04-12T04:31:03.615Z,945.9
2017-04-12T04:32:11.695Z,945.9
2017-04-12T04:33:19.785Z,945.9
2017-04-12T04:34:28.384Z,945.9
2017-04-12T04:35:36.135Z,945.9
2017-04-12T04:36:44.058Z,945.8
2017-04-12T04:37:52.151Z,945.8
2017-04-12T04:39:00.233Z,945.8
2017-04-12T04:40:08.444Z,945.7
2017-04-12T04:41:16.407Z,945.7
2017-04-12T04:42:24.493Z,945.7
2017-04-12T04:43:32.583Z,945.7
2017-04-12T04:44:40.671Z,945.7
2017-04-12T04:45:48.830Z,945.7
2017-04-12T04:46:56.843Z,945.7
2017-04-12T04:48:04.984Z,945.7
2017-04-12T04:49:13.018Z,945.7
2017-04-12T04:50:21.102Z,945.7
2017-04-12T04:51:29.863Z,945.8
2017-04-12T04:52:37.287Z,945.8
2017-04-12T04:53:45.364Z,945.8
2017-04-12T04:54:53.444Z,945.8
2017-04-12T04:56:01.535Z,945.8
2017-04-12T04:57:09.852Z,945.7
2017-04-12T04:58:17.708Z,945.7
2017-04-12T04:59:25.798Z,945.8
2017-04-12T05:00:33.886Z,945.7
2017-04-12T05:01:41.971Z,945.7
2017-04-12T05:02:50.111Z,945.7
2017-04-12T05:03:58.144Z,945.6
2017-04-12T05:05:06.229Z,945.6
2017-04-12T05:06:14.309Z,945.6
2017-04-12T05:07:24.580Z,945.6
2017-04-12T05:08:30.599Z,945.6
2017-04-12T05:09:38.568Z,945.6
2017-04-12T05:10:46.652Z,945.6
2017-04-12T05:11:54.741Z,945.6
2017-04-12T05:13:03.194Z,945.6
2017-04-12T05:14:10.961Z,945.6
2017-04-12T05:15:18.994Z,945.6
2017-04-12T05:16:27.079Z,945.6
2017-04-12T05:17:35.188Z,945.6
2017-04-12T05:18:43.254Z,945.6
2017-04-12T05:19:51.854Z,945.6
2017-04-12T05:20:59.549Z,945.6
2017-04-12T05:22:07.669Z,945.6
2017-04-12T05:23:15.745Z,945.6
2017-04-12T05:24:23.770Z,945.6
2017-04-12T05:25:31.836Z,945.5
2017-04-12T05:26:39.870Z,945.6
2017-04-12T05:27:47.954Z,945.6
2017-04-12T05:28:56.045Z,945.6
2017-04-12T05:30:04.122Z,945.6
2017-04-12T05:31:13.416Z,945.6
2017-04-12T05:32:20.307Z,945.6
2017-04-12T05:33:28.371Z,945.6
2017-04-12T05:34:36.546Z,945.6
2017-04-12T05:35:44.544Z,945.6
2017-04-12T05:36:54.136Z,945.5
2017-04-12T05:38:00.713Z,945.6
2017-04-12T05:39:08.927Z,945.6
2017-04-12T05:40:16.897Z,945.6
2017-04-12T05:41:24.984Z,945.6
2017-04-12T05:42:33.132Z,945.6
2017-04-12T05:43:41.158Z,945.6
2017-04-12T05:44:49.476Z,945.6
2017-04-12T05:45:57.457Z,945.6
2017-04-12T05:47:05.423Z,945.6
2017-04-12T05:48:13.569Z,945.6
2017-04-12T05:49:21.595Z,945.6
2017-04-12T05:50:29.920Z,945.6
2017-04-12T05:51:37.774Z,945.6
2017-04-12T05:52:45.859Z,945.6
2017-04-12T05:53:54.475Z,945.6
2017-04-12T05:55:02.089Z,945.5
2017-04-12T05:56:10.270Z,945.6
2017-04-12T05:57:18.204Z,945.6
2017-04-12T05:58:26.298Z,945.5
2017-04-12T05:59:34.501Z,945.6
2017-04-12T06:00:42.465Z,945.5
2017-04-12T06:01:50.580Z,945.6
2017-04-12T06:02:58.642Z,945.6
2017-04-12T06:04:06.729Z,945.6
2017-04-12T06:05:14.870Z,945.6
2017-04-12T06:06:23.051Z,945.6
2017-04-12T06:07:31.116Z,945.6
2017-04-12T06:08:39.062Z,945.6
2017-04-12T06:09:47.149Z,945.6
2017-04-12T06:10:55.297Z,945.6
2017-04-12T06:12:03.329Z,945.6
2017-04-12T06:13:11.412Z,945.6
2017-04-12T06:14:19.501Z,945.6
2017-04-12T06:15:27.582Z,945.6
2017-04-12T06:16:36.178Z,945.6
2017-04-12T06:17:43.755Z,945.6
2017-04-12T06:18:51.842Z,945.6
2017-04-12T06:19:59.930Z,945.6
2017-04-12T06:21:08.009Z,945.6
2017-04-12T06:22:16.153Z,945.5
2017-04-12T06:23:24.183Z,945.5
2017-04-12T06:24:32.264Z,945.5
2017-04-12T06:25:40.360Z,945.5
2017-04-12T06:26:48.562Z,945.5
2017-04-12T06:27:57.155Z,945.5
2017-04-12T06:29:04.716Z,945.5
2017-04-12T06:30:12.747Z,945.5
2017-04-12T06:31:20.785Z,945.5
2017-04-12T06:32:28.908Z,945.5
2017-04-12T06:33:38.000Z,945.4
2017-04-12T06:34:45.041Z,945.5
2017-04-12T06:35:53.120Z,945.4
2017-04-12T06:37:01.202Z,945.4
2017-04-12T06:38:09.291Z,945.4
2017-04-12T06:39:17.901Z,945.4
2017-04-12T06:40:25.472Z,945.4
2017-04-12T06:41:33.557Z,945.4
2017-04-12T06:42:41.765Z,945.4
2017-04-12T06:43:49.865Z,945.3
2017-04-12T06:44:57.876Z,945.3
2017-04-12T06:46:05.911Z,945.3
2017-04-12T06:47:14.001Z,945.3
2017-04-12T06:48:22.081Z,945.3
2017-04-12T06:49:30.224Z,945.3
2017-04-12T06:50:38.761Z,945.3
2017-04-12T06:51:46.343Z,945.3
2017-04-12T06:52:54.428Z,945.3
2017-04-12T06:54:02.518Z,945.3
2017-04-12T06:55:10.740Z,945.3
2017-04-12T06:56:18.745Z,945.3
2017-04-12T06:57:26.773Z,945.3
2017-04-12T06:58:34.914Z,945.3
2017-04-12T06:59:42.937Z,945.2
2017-04-12T07:00:51.059Z,945.2
2017-04-12T07:01:59.627Z,945.3
2017-04-12T07:03:07.215Z,945.3
2017-04-12T07:04:15.299Z,945.3
2017-04-12T07:05:23.388Z,945.3
2017-04-12T07:06:31.567Z,945.2
2017-04-12T07:07:39.614Z,945.2
2017-04-12T07:08:47.641Z,945.3
2017-04-12T07:09:55.729Z,945.3
2017-04-12T07:11:03.819Z,945.3
2017-04-12T07:12:11.903Z,945.3
2017-04-12T07:13:20.497Z,945.3
2017-04-12T07:14:28.195Z,945.3
2017-04-12T07:15:36.162Z,945.3
2017-04-12T07:16:44.244Z,945.3
2017-04-12T07:17:52.329Z,945.3
2017-04-12T07:19:00.479Z,945.3
2017-04-12T07:20:08.503Z,945.3
2017-04-12T07:21:16.590Z,945.3
2017-04-12T07:22:24.702Z,945.3
2017-04-12T07:23:32.763Z,945.3
2017-04-12T07:24:40.967Z,945.3
2017-04-12T07:25:48.935Z,945.3
2017-04-12T07:26:57.194Z,945.2
2017-04-12T07:28:05.291Z,945.3
2017-04-12T07:29:13.189Z,945.2
2017-04-12T07:30:21.393Z,945.3
2017-04-12T07:31:29.360Z,945.2
2017-04-12T07:32:37.448Z,945.2
2017-04-12T07:33:45.609Z,945.2
2017-04-12T07:34:53.619Z,945.2
2017-04-12T07:36:01.773Z,945.3
2017-04-12T07:37:09.803Z,945.3
2017-04-12T07:38:18.079Z,945.3
2017-04-12T07:39:25.977Z,945.3
2017-04-12T07:40:34.063Z,945.2
2017-04-12T07:41:42.655Z,945.3
2017-04-12T07:42:50.236Z,945.3
2017-04-12T07:43:58.326Z,945.3
2017-04-12T07:45:06.424Z,945.3
2017-04-12T07:46:14.546Z,945.2
2017-04-12T07:47:22.692Z,945.3
2017-04-12T07:48:30.783Z,945.3
2017-04-12T07:49:38.747Z,945.3
2017-04-12T07:50:46.830Z,945.2
2017-04-12T07:51:54.912Z,945.3
2017-04-12T07:53:03.505Z,945.3
2017-04-12T07:54:11.085Z,945.2
2017-04-12T07:55:19.224Z,945.2
2017-04-12T07:56:27.254Z,945.2
2017-04-12T07:57:35.339Z,945.2
2017-04-12T07:58:43.477Z,945.2
2017-04-12T07:59:51.555Z,945.2
2017-04-12T08:00:59.592Z,945.2
2017-04-12T08:02:08.191Z,945.2
2017-04-12T08:03:15.766Z,945.2
2017-04-12T08:04:24.037Z,945.2
2017-04-12T08:05:31.940Z,945.2
2017-04-12T08:06:40.029Z,945.2
2017-04-12T08:07:48.113Z,945.2
2017-04-12T08:08:56.199Z,945.2
2017-04-12T08:10:04.340Z,945.2
2017-04-12T08:11:12.368Z,945.2
2017-04-12T08:12:20.453Z,945.2
2017-04-12T08:13:28.592Z,945.2
2017-04-12T08:14:36.634Z,945.2
2017-04-12T08:15:44.967Z,945.2
2017-04-12T08:16:52.807Z,945.2
2017-04-12T08:18:01.394Z,945.2
2017-04-12T08:19:08.969Z,945.2
2017-04-12T08:20:17.058Z,945.2
2017-04-12T08:21:25.233Z,945.2
2017-04-12T08:22:33.225Z,945.2
2017-04-12T08:23:41.307Z,945.2
2017-04-12T08:24:49.400Z,945.2
2017-04-12T08:25:57.657Z,945.2
2017-04-12T08:27:05.694Z,945.2
2017-04-12T08:28:13.668Z,945.2
2017-04-12T08:29:21.764Z,945.2
2017-04-12T08:30:29.874Z,945.2
2017-04-12T08:31:37.933Z,945.2
2017-04-12T08:32:46.081Z,945.1
2017-04-12T08:33:54.611Z,945.1
2017-04-12T08:35:02.192Z,945.1
2017-04-12T08:36:10.284Z,945.2
2017-04-12T08:37:18.534Z,945.1
2017-04-12T08:38:26.757Z,945.2
2017-04-12T08:39:34.541Z,945.2
2017-04-12T08:40:42.624Z,945.2
2017-04-12T08:41:50.717Z,945.2
2017-04-12T08:42:58.798Z,945.2
2017-04-12T08:44:07.388Z,945.2
2017-04-12T08:45:14.969Z,945.2
2017-04-12T08:46:23.053Z,945.2
2017-04-12T08:47:31.315Z,945.2
2017-04-12T08:48:39.378Z,945.2
2017-04-12T08:49:47.431Z,945.2
2017-04-12T08:50:55.393Z,945.2
2017-04-12T08:52:03.490Z,945.2
2017-04-12T08:53:11.578Z,945.1
2017-04-12T08:54:19.666Z,945.1
2017-04-12T08:55:28.318Z,945.1
2017-04-12T08:56:35.841Z,945.1
2017-04-12T08:57:43.923Z,945.0
2017-04-12T08:58:52.224Z,945.1
2017-04-12T09:00:00.112Z,945.1
2017-04-12T09:01:08.372Z,945.0
2017-04-12T09:02:16.322Z,945.0
2017-04-12T09:03:24.434Z,945.0
2017-04-12T09:04:32.542Z,945.0
2017-04-12T09:05:41.036Z,945.0
2017-04-12T09:06:48.732Z,945.0
2017-04-12T09:07:56.696Z,945.0
2017-04-12T09:09:04.857Z,945.0
2017-04-12T09:10:13.040Z,945.0
2017-04-12T09:11:20.957Z,944.9
2017-04-12T09:12:29.104Z,944.9
2017-04-12T09:13:37.126Z,944.9
2017-04-12T09:14:45.208Z,944.9
2017-04-12T09:15:53.289Z,944.9
2017-04-12T09:17:01.380Z,944.9
2017-04-12T09:18:10.015Z,944.9
2017-04-12T09:19:17.546Z,944.9
2017-04-12T09:20:25.672Z,944.9
2017-04-12T09:21:34.231Z,944.8
2017-04-12T09:22:41.821Z,944.8
2017-04-12T09:23:50.191Z,944.8
2017-04-12T09:24:57.993Z,944.8
2017-04-12T09:26:06.751Z,944.8
2017-04-12T09:27:14.744Z,944.8
2017-04-12T09:28:22.569Z,944.9
2017-04-12T09:29:30.399Z,944.9
2017-04-12T09:30:38.604Z,944.9
2017-04-12T09:31:46.954Z,944.9
2017-04-12T09:32:54.717Z,944.9
2017-04-12T09:34:02.667Z,944.9
2017-04-12T09:35:11.263Z,944.9
2017-04-12T09:36:18.843Z,944.8
2017-04-12T09:37:28.616Z,944.8
2017-04-12T09:38:35.266Z,944.8
2017-04-12T09:39:43.102Z,944.8
2017-04-12T09:40:51.763Z,944.8
2017-04-12T09:41:59.268Z,944.8
2017-04-12T09:43:07.772Z,944.7
2017-04-12T09:44:15.935Z,944.7
2017-04-12T09:45:23.536Z,944.7
2017-04-12T09:46:32.130Z,944.7
2017-04-12T09:47:39.829Z,944.6
2017-04-12T09:48:47.818Z,944.6
2017-04-12T09:49:55.880Z,944.6
2017-04-12T09:51:04.178Z,944.6
2017-04-12T09:52:12.645Z,944.6
2017-04-12T09:53:21.213Z,944.6
2017-04-12T09:54:28.223Z,944.6
2017-04-12T09:55:36.309Z,944.6
2017-04-12T09:56:44.388Z,944.6
2017-04-12T09:57:52.593Z,944.6
2017-04-12T09:59:00.767Z,944.6
2017-04-12T10:00:08.651Z,944.6
2017-04-12T10:01:16.736Z,944.6
2017-04-12T10:02:24.825Z,944.6
2017-04-12T10:03:32.972Z,944.5
2017-04-12T10:04:41.000Z,944.5
2017-04-12T10:05:49.085Z,944.5
2017-04-12T10:06:57.174Z,944.5
2017-04-12T10:08:05.263Z,944.5
2017-04-12T10:09:13.898Z,944.5
2017-04-12T10:10:21.472Z,944.4
2017-04-12T10:11:29.515Z,944.4
2017-04-12T10:12:37.603Z,944.4
2017-04-12T10:13:45.696Z,944.4
2017-04-12T10:14:53.978Z,944.3
2017-04-12T10:16:01.866Z,944.3
2017-04-12T10:17:09.952Z,944.3
2017-04-12T10:18:18.291Z,944.3
2017-04-12T10:19:26.128Z,944.3
2017-04-12T10:20:34.711Z,944.3
2017-04-12T10:21:42.290Z,944.3
2017-04-12T10:22:50.379Z,944.2
2017-04-12T10:23:58.466Z,944.2
2017-04-12T10:25:06.796Z,944.2
2017-04-12T10:26:14.693Z,944.2
2017-04-12T10:27:22.721Z,944.2
2017-04-12T10:28:30.804Z,944.1
2017-04-12T10:29:38.882Z,944.1
2017-04-12T10:30:46.971Z,944.1
2017-04-12T10:31:55.116Z,944.1
2017-04-12T10:33:03.142Z,944.1
2017-04-12T10:34:11.228Z,944.1
2017-04-12T10:35:19.314Z,944.1
2017-04-12T10:36:27.422Z,944.1
2017-04-12T10:37:35.992Z,944.1
2017-04-12T10:38:43.571Z,944.1
2017-04-12T10:39:51.664Z,944.0
2017-04-12T10:40:59.982Z,944.0
2017-04-12T10:42:07.832Z,944.0
2017-04-12T10:43:15.974Z,943.9
2017-04-12T10:44:23.998Z,943.9
2017-04-12T10:45:32.085Z,943.9
2017-04-12T10:46:40.239Z,943.9
2017-04-12T10:47:48.321Z,943.9
2017-04-12T10:48:56.390Z,943.9
2017-04-12T10:50:04.426Z,943.8
2017-04-12T10:51:12.557Z,943.8
2017-04-12T10:52:20.601Z,943.8
2017-04-12T10:53:28.687Z,943.8
2017-04-12T10:54:37.283Z,943.8
2017-04-12T10:55:44.866Z,943.8
2017-04-12T10:56:53.071Z,943.8
2017-04-12T10:58:01.107Z,943.8
2017-04-12T10:59:09.126Z,943.8
2017-04-12T11:00:17.268Z,943.8
2017-04-12T11:01:25.297Z,943.8
2017-04-12T11:02:33.609Z,943.8
2017-04-12T11:03:41.467Z,943.7
2017-04-12T11:04:49.548Z,943.7
2017-04-12T11:05:58.148Z,943.7
2017-04-12T11:07:05.726Z,943.7
2017-04-12T11:08:13.814Z,943.6
2017-04-12T11:09:21.897Z,943.7
2017-04-12T11:10:29.982Z,943.7
2017-04-12T11:11:38.185Z,943.7
2017-04-12T11:12:46.395Z,943.7
2017-04-12T11:13:54.405Z,943.7
2017-04-12T11:15:02.326Z,943.7
2017-04-12T11:16:10.413Z,943.6
2017-04-12T11:17:19.013Z,943.6
2017-04-12T11:18:26.592Z,943.6
2017-04-12T11:19:34.677Z,943.6
2017-04-12T11:20:42.767Z,943.6
2017-04-12T11:21:50.853Z,943.5
2017-04-12T11:22:59.053Z,943.5
2017-04-12T11:24:07.209Z,943.5
2017-04-12T11:25:15.118Z,943.5
2017-04-12T11:26:23.206Z,943.4
2017-04-12T11:27:31.296Z,943.4
2017-04-12T11:28:39.878Z,943.4
2017-04-12T11:29:47.464Z,943.4
2017-04-12T11:30:55.546Z,943.3
2017-04-12T11:32:03.630Z,943.3
2017-04-12T11:33:11.717Z,943.2
2017-04-12T11:34:19.857Z,943.2
2017-04-12T11:35:27.905Z,943.2
2017-04-12T11:36:35.976Z,943.2
2017-04-12T11:37:44.058Z,943.2
2017-04-12T11:38:52.147Z,943.2
2017-04-12T11:40:00.907Z,943.2
2017-04-12T11:41:08.315Z,943.1
2017-04-12T11:42:16.403Z,943.1
2017-04-12T11:43:24.481Z,943.0
2017-04-12T11:44:32.628Z,943.0
2017-04-12T11:45:40.791Z,942.9
2017-04-12T11:46:48.737Z,942.9
2017-04-12T11:47:56.824Z,942.9
2017-04-12T11:49:04.912Z,942.9
2017-04-12T11:50:13.198Z,942.9
2017-04-12T11:51:21.765Z,942.9
2017-04-12T11:52:29.166Z,942.9
2017-04-12T11:53:37.255Z,942.8
2017-04-12T11:54:45.339Z,942.8
2017-04-12T11:55:53.419Z,942.8
2017-04-12T11:57:01.592Z,942.8
2017-04-12T11:58:09.590Z,942.8
2017-04-12T11:59:17.678Z,942.7
2017-04-12T12:00:26.269Z,942.7
2017-04-12T12:01:34.050Z,942.7
2017-04-12T12:02:41.998Z,942.6
2017-04-12T12:03:50.022Z,942.6
2017-04-12T12:04:58.114Z,942.6
2017-04-12T12:06:06.199Z,942.6
2017-04-12T12:07:14.289Z,942.5
2017-04-12T12:08:22.506Z,942.6
2017-04-12T12:09:30.453Z,942.5
2017-04-12T12:10:38.540Z,942.5
2017-04-12T12:11:46.830Z,942.5
2017-04-12T12:12:54.733Z,942.5
2017-04-12T12:14:02.860Z,942.5
2017-04-12T12:15:10.896Z,942.5
2017-04-12T12:16:19.485Z,942.5
2017-04-12T12:17:27.065Z,942.5
2017-04-12T12:18:35.163Z,942.5
2017-04-12T12:19:43.355Z,942.5
2017-04-12T12:20:51.321Z,942.4
2017-04-12T12:21:59.404Z,942.4
2017-04-12T12:23:07.656Z,942.4
2017-04-12T12:24:15.576Z,942.4
2017-04-12T12:25:23.717Z,942.4
2017-04-12T12:26:31.747Z,942.3
2017-04-12T12:27:39.836Z,942.4
2017-04-12T12:28:47.923Z,942.3
2017-04-12T12:29:56.068Z,942.4
2017-04-12T12:31:04.146Z,942.3
2017-04-12T12:32:12.238Z,942.3
2017-04-12T12:33:20.462Z,942.3
2017-04-12T12:34:28.525Z,942.3
2017-04-12T12:35:36.431Z,942.3
2017-04-12T12:36:44.579Z,942.3
2017-04-12T12:37:52.605Z,942.3
2017-04-12T12:39:00.687Z,942.3
2017-04-12T12:40:08.772Z,942.3
2017-04-12T12:41:16.858Z,942.2
2017-04-12T12:42:25.065Z,942.2
2017-04-12T12:43:33.025Z,942.2
2017-04-12T12:44:41.295Z,942.2
2017-04-12T12:45:49.197Z,942.1
2017-04-12T12:46:57.287Z,942.1
2017-04-12T12:48:05.435Z,942.1
2017-04-12T12:49:13.463Z,942.1
2017-04-12T12:50:21.542Z,942.0
2017-04-12T12:51:29.639Z,942.0
2017-04-12T12:52:37.721Z,942.0
2017-04-12T12:53:46.314Z,942.0
2017-04-12T12:54:54.090Z,942.0
2017-04-12T12:56:02.065Z,942.0
2017-04-12T12:57:10.072Z,941.9
2017-04-12T12:58:18.156Z,941.9
2017-04-12T12:59:26.367Z,941.9
2017-04-12T13:00:34.331Z,941.9
2017-04-12T13:01:42.416Z,941.9
2017-04-12T13:02:50.503Z,941.9
2017-04-12T13:03:58.650Z,941.9
2017-04-12T13:05:07.184Z,941.9
2017-04-12T13:06:14.760Z,941.9
2017-04-12T13:07:22.851Z,941.9
2017-04-12T13:08:30.934Z,941.9
2017-04-12T13:09:39.019Z,941.9
2017-04-12T13:10:47.340Z,941.8
2017-04-12T13:11:55.193Z,941.8
2017-04-12T13:13:03.274Z,941.8
2017-04-12T13:14:11.357Z,941.7
2017-04-12T13:15:19.446Z,941.7
2017-04-12T13:16:27.591Z,941.8
2017-04-12T13:17:35.622Z,941.7
2017-04-12T13:18:43.707Z,941.6
2017-04-12T13:19:52.299Z,941.6
2017-04-12T13:20:59.879Z,941.6
2017-04-12T13:22:08.242Z,941.6
2017-04-12T13:23:16.050Z,941.7
2017-04-12T13:24:24.143Z,941.6
2017-04-12T13:25:32.227Z,941.6
2017-04-12T13:26:40.310Z,941.5
2017-04-12T13:27:48.906Z,941.5
2017-04-12T13:28:56.493Z,941.5
2017-04-12T13:30:04.573Z,941.4
2017-04-12T13:31:12.666Z,941.4
2017-04-12T13:32:20.824Z,941.4
2017-04-12T13:33:29.402Z,941.4
2017-04-12T13:34:36.927Z,941.4
2017-04-12T13:35:45.143Z,941.4
2017-04-12T13:36:53.106Z,941.4
2017-04-12T13:38:01.189Z,941.3
2017-04-12T13:39:09.342Z,941.3
2017-04-12T13:40:17.368Z,941.3
2017-04-12T13:41:25.457Z,941.3
2017-04-12T13:42:33.539Z,941.3
2017-04-12T13:43:41.791Z,941.3
2017-04-12T13:44:49.827Z,941.2
2017-04-12T13:45:57.794Z,941.2
2017-04-12T13:47:05.881Z,941.2
2017-04-12T13:48:13.966Z,941.2
2017-04-12T13:49:22.051Z,941.1
2017-04-12T13:50:30.640Z,941.1
2017-04-12T13:51:38.279Z,941.2
2017-04-12T13:52:46.307Z,941.2
2017-04-12T13:53:54.492Z,941.2
2017-04-12T13:55:02.571Z,941.1
2017-04-12T13:56:10.619Z,941.1
2017-04-12T13:57:18.644Z,941.1
2017-04-12T13:58:26.733Z,941.2
2017-04-12T13:59:34.818Z,941.2
2017-04-12T14:00:42.906Z,941.2
2017-04-12T14:01:51.494Z,941.1
2017-04-12T14:02:59.078Z,941.2
2017-04-12T14:04:07.161Z,941.2
2017-04-12T14:05:15.295Z,941.1
2017-04-12T14:06:23.330Z,941.1
2017-04-12T14:07:31.473Z,941.1
2017-04-12T14:08:39.496Z,941.1
2017-04-12T14:09:47.582Z,941.1
2017-04-12T14:10:55.670Z,941.0
2017-04-12T14:12:03.760Z,941.0
2017-04-12T14:13:11.958Z,941.0
2017-04-12T14:14:19.925Z,941.0
2017-04-12T14:15:28.090Z,941.0
2017-04-12T14:16:36.158Z,940.9
2017-04-12T14:17:44.178Z,940.9
2017-04-12T14:18:52.386Z,941.0
2017-04-12T14:20:00.358Z,941.0
2017-04-12T14:21:08.614Z,941.0
2017-04-12T14:22:16.533Z,940.9
2017-04-12T14:23:24.672Z,940.9
2017-04-12T14:24:32.813Z,940.9
2017-04-12T14:25:40.786Z,940.9
2017-04-12T14:26:48.882Z,940.9
2017-04-12T14:27:56.966Z,940.9
2017-04-12T14:29:05.050Z,940.8
2017-04-12T14:30:13.197Z,940.8
2017-04-12T14:31:21.355Z,940.7
2017-04-12T14:32:29.316Z,940.7
2017-04-12T14:33:37.393Z,940.7
2017-04-12T14:34:45.488Z,940.7
2017-04-12T14:35:54.079Z,940.6
2017-04-12T14:37:01.664Z,940.6